Ole-arvid Nergaard — LLAY — position and weather

sailwx.info

Track history (hours):
 
Tides and Currents Weather Stations Pressure Air Temp Water Temp Dewpoint Dewpoint Depression Visibility Wind Speed Wind Dir Waves Ship Positions

Ole-arvid Nergaard

Last reported at 2018-Apr-26 11:00 UTC. Time now 2018-Apr-26 11:24 UTC.
Position N 71°25' E 026°47'.

Length 55 m; draft 7.2 m.

Type: Fishing. MMSI: 259656000.

Date/timePositionNaut miles runAvg speedWind from/ knotsBaromVisibWave heightAir tempDewpointWater temp
2018-Apr-26 11:00N 71°25' E 026°47'2 3.9
2018-Apr-26 10:29N 71°24' E 026°52'2 3.2
2018-Apr-26 10:00N 71°24' E 026°47'2 4.1
2018-Apr-26 09:29N 71°25' E 026°41'2 4.2
2018-Apr-26 08:59N 71°26' E 026°35'1 2.8
2018-Apr-26 08:30N 71°28' E 026°36'2 3.7
2018-Apr-26 08:00N 71°27' E 026°41'2 3.8
2018-Apr-26 07:28N 71°26' E 026°47'2 4.1
2018-Apr-26 07:00N 71°25' E 026°52'2 3.6
2018-Apr-26 06:30N 71°23' E 026°54'2 4.1
2018-Apr-26 05:59N 71°22' E 026°50'1 1.0
2018-Apr-26 05:30N 71°22' E 026°50'1 2.8
2018-Apr-26 05:00N 71°23' E 026°46'2 3.7
2018-Apr-26 04:30N 71°23' E 026°40'2 3.3
2018-Apr-26 04:00N 71°25' E 026°41'2 4.1
2018-Apr-26 03:30N 71°24' E 026°46'1 2.2
2018-Apr-26 03:00N 71°23' E 026°45'2 3.8
2018-Apr-26 02:30N 71°24' E 026°41'2 3.5
2018-Apr-26 02:00N 71°26' E 026°42'2 3.9
2018-Apr-26 01:30N 71°25' E 026°46'2 4.1
2018-Apr-26 01:00N 71°24' E 026°52'2 4.3
2018-Apr-26 00:30N 71°23' E 026°58'2 4.1
2018-Apr-26 00:00N 71°22' E 027°04'2 4.0
2018-Apr-25 23:29N 71°22' E 027°10'2 3.9
2018-Apr-25 23:00N 71°21' E 027°16'1 1.5
2018-Apr-25 22:30N 71°21' E 027°18'2 3.3
2018-Apr-25 21:59N 71°21' E 027°13'2 4.5
2018-Apr-25 21:30N 71°21' E 027°06'2 4.4
2018-Apr-25 21:00N 71°21' E 026°59'2 4.4
2018-Apr-25 20:30N 71°22' E 026°52'2 4.4
2018-Apr-25 20:00N 71°22' E 026°46'2 4.1
2018-Apr-25 19:30N 71°22' E 026°39'2 4.0
2018-Apr-25 18:59N 71°22' E 026°33'2 4.0
2018-Apr-25 18:30N 71°22' E 026°27'2 4.0
2018-Apr-25 17:59N 71°23' E 026°20'2 4.4
2018-Apr-25 17:30N 71°22' E 026°14'1 2.3
2018-Apr-25 16:59N 71°23' E 026°10'2 3.2
2018-Apr-25 16:30N 71°23' E 026°05'2 3.9
2018-Apr-25 16:00N 71°23' E 025°59'2 4.0
2018-Apr-25 15:30N 71°23' E 025°53'2 4.0
2018-Apr-25 15:00N 71°23' E 025°47'2 4.0
2018-Apr-25 14:30N 71°23' E 025°40'2 4.2
2018-Apr-25 14:00N 71°23' E 025°34'2 4.2
2018-Apr-25 13:30N 71°22' E 025°27'2 4.2
2018-Apr-25 13:00N 71°22' E 025°21'2 4.1
2018-Apr-25 12:30N 71°22' E 025°15'2 4.1
2018-Apr-25 12:00N 71°21' E 025°08'2 4.7
2018-Apr-25 11:30N 71°21' E 025°01'2 3.0
2018-Apr-25 11:00N 71°21' E 024°56'1 2.2
2018-Apr-25 10:30N 71°20' E 024°54'2 4.1
2018-Apr-25 10:00N 71°20' E 024°48'2 4.1
2018-Apr-25 09:30N 71°19' E 024°41'2 4.1
2018-Apr-25 08:59N 71°19' E 024°35'2 4.2
2018-Apr-25 08:30N 71°19' E 024°29'2 4.2
2018-Apr-25 08:00N 71°19' E 024°22'2 4.2
2018-Apr-25 07:30N 71°18' E 024°16'2 4.1
2018-Apr-25 07:00N 71°18' E 024°09'2 4.0
2018-Apr-25 06:30N 71°18' E 024°03'2 3.9
2018-Apr-25 06:00N 71°18' E 023°57'2 4.0
2018-Apr-25 05:30N 71°18' E 023°51'2 4.0
2018-Apr-25 05:00N 71°17' E 023°45'4 8.6
2018-Apr-25 04:30N 71°15' E 023°33'611.3
2018-Apr-25 04:00N 71°13' E 023°16'611.3
2018-Apr-25 03:30N 71°11' E 023°01'5 9.4
2018-Apr-25 03:00N 71°09' E 022°48'2 3.1
2018-Apr-25 02:30N 71°07' E 022°49'1 2.8
2018-Apr-25 02:00N 71°06' E 022°50'2 3.8
2018-Apr-25 01:30N 71°06' E 022°44'2 4.1
2018-Apr-25 01:00N 71°08' E 022°46'2 3.2
2018-Apr-25 00:30N 71°07' E 022°50'2 3.9
2018-Apr-25 00:00N 71°06' E 022°48'2 4.2
2018-Apr-24 23:30N 71°05' E 022°42'2 4.3
2018-Apr-24 23:00N 71°04' E 022°36'2 4.5
2018-Apr-24 22:29N 71°02' E 022°31'2 4.5
2018-Apr-24 21:58N 71°01' E 022°25'2 5.2
2018-Apr-24 21:30N 70°60' E 022°18'612.6
2018-Apr-24 21:00N 70°57' E 022°01'612.8
2018-Apr-24 20:30N 70°54' E 021°43'  
2018-Apr-22 12:03N 69°54' E 016°38'0 4.7
2018-Apr-22 12:00N 69°54' E 016°38'2 3.8
2018-Apr-22 11:29N 69°52' E 016°37'2 3.2
2018-Apr-22 10:44N 69°54' E 016°39'1 4.1
2018-Apr-22 10:30N 69°54' E 016°42'2 4.0
2018-Apr-22 10:00N 69°54' E 016°47'2 4.1
2018-Apr-22 09:30N 69°54' E 016°53'1 2.4
2018-Apr-22 08:59N 69°55' E 016°51'2 4.2
2018-Apr-22 08:30N 69°55' E 016°46'3 4.0
2018-Apr-22 07:45N 69°54' E 016°38'1 3.2
2018-Apr-22 07:30N 69°53' E 016°40'2 4.1
2018-Apr-22 07:00N 69°54' E 016°45'2 4.1
2018-Apr-22 06:30N 69°54' E 016°52'2 4.3
2018-Apr-22 06:00N 69°55' E 016°58'2 4.6
2018-Apr-22 05:30N 69°55' E 017°04'1 2.6
2018-Apr-22 05:00N 69°55' E 017°08'2 4.4
2018-Apr-22 04:29N 69°56' E 017°14'2 3.8
2018-Apr-22 04:00N 69°55' E 017°20'2 3.5
2018-Apr-22 03:29N 69°56' E 017°16'2 4.0
2018-Apr-22 02:59N 69°56' E 017°10'2 4.0
2018-Apr-22 02:30N 69°56' E 017°04'4 8.6
2018-Apr-22 02:00N 69°60' E 017°09'12 0.5
2018-Apr-21 03:59N 69°54' E 016°39'2 4.3
2018-Apr-21 03:30N 69°53' E 016°45'1 2.6
2018-Apr-21 02:59N 69°54' E 016°43'2 3.5
2018-Apr-21 02:30N 69°53' E 016°39'2 4.0
2018-Apr-21 02:00N 69°54' E 016°44'2 4.2
2018-Apr-21 01:30N 69°54' E 016°50'2 4.1
2018-Apr-21 01:00N 69°55' E 016°56'2 4.8
2018-Apr-21 00:30N 69°56' E 017°02'2 3.4
2018-Apr-20 23:58N 69°56' E 017°07'2 4.6
2018-Apr-20 23:30N 69°56' E 017°13'2 4.8
2018-Apr-20 23:00N 69°56' E 017°20'1 1.4
2018-Apr-20 22:30N 69°55' E 017°20'5 9.8
2018-Apr-20 22:00N 69°50' E 017°19'611.7
2018-Apr-20 21:30N 69°44' E 017°22'611.7
2018-Apr-20 21:00N 69°39' E 017°25'612.4
2018-Apr-20 20:30N 69°33' E 017°28'3 6.1
2018-Apr-20 20:00N 69°30' E 017°29'0 0.0
2018-Apr-20 19:30N 69°30' E 017°29'0 0.0
2018-Apr-20 19:00N 69°30' E 017°29'0 0.0
2018-Apr-20 18:30N 69°30' E 017°29'0 0.0
2018-Apr-20 18:00N 69°30' E 017°29'0 0.0
2018-Apr-20 17:30N 69°30' E 017°29'0 0.0
2018-Apr-20 17:00N 69°30' E 017°29'0 0.0
2018-Apr-20 16:30N 69°30' E 017°29'0 0.0
2018-Apr-20 16:00N 69°30' E 017°29'0 0.0
2018-Apr-20 15:30N 69°30' E 017°29'0 0.0
2018-Apr-20 15:00N 69°30' E 017°29'0 0.0
2018-Apr-20 14:30N 69°30' E 017°29'0 0.0
2018-Apr-20 13:59N 69°30' E 017°29'0 0.0
2018-Apr-20 13:30N 69°30' E 017°29'0 0.0
2018-Apr-20 13:00N 69°30' E 017°29'0 0.0
2018-Apr-20 12:30N 69°30' E 017°29'0 0.0
2018-Apr-20 12:00N 69°30' E 017°29'0 0.0
2018-Apr-20 11:30N 69°30' E 017°29'0 0.0
2018-Apr-20 11:00N 69°30' E 017°29'0 0.0
2018-Apr-20 10:30N 69°30' E 017°29'0 0.0
2018-Apr-20 09:59N 69°30' E 017°29'0 0.0
2018-Apr-20 09:30N 69°30' E 017°29'0 0.0
2018-Apr-20 09:00N 69°30' E 017°29'0 0.0
2018-Apr-20 08:29N 69°30' E 017°29'0 0.0
2018-Apr-20 08:00N 69°30' E 017°29'0 0.0
2018-Apr-20 07:30N 69°30' E 017°29'0 0.0
2018-Apr-20 07:00N 69°30' E 017°29'0 0.0
2018-Apr-20 06:29N 69°30' E 017°29'0 0.0
2018-Apr-20 06:00N 69°30' E 017°29'0 0.0
2018-Apr-20 05:30N 69°30' E 017°29'0 0.0
2018-Apr-20 04:59N 69°30' E 017°29'0 0.0
2018-Apr-20 04:29N 69°30' E 017°29'0 0.0
2018-Apr-20 04:00N 69°30' E 017°29'0 0.0
2018-Apr-20 03:30N 69°30' E 017°29'0 0.1
2018-Apr-20 02:59N 69°30' E 017°29'4 7.9
2018-Apr-20 02:30N 69°34' E 017°27'510.2
2018-Apr-20 02:00N 69°39' E 017°30'5 9.7
2018-Apr-20 01:30N 69°39' E 017°44'611.0
2018-Apr-20 01:00N 69°35' E 017°55'611.7
2018-Apr-20 00:30N 69°31' E 018°08'510.9
2018-Apr-20 00:00N 69°31' E 018°23'511.0
2018-Apr-19 23:30N 69°33' E 018°38'4 8.4
2018-Apr-19 23:00N 69°35' E 018°49'510.1
2018-Apr-19 22:30N 69°39' E 018°58'1 1.4
2018-Apr-19 22:00N 69°39' E 018°58'0 0.0
2018-Apr-19 21:30N 69°39' E 018°58'0 0.0
2018-Apr-19 21:00N 69°39' E 018°58'0 0.0
2018-Apr-19 20:29N 69°39' E 018°58'0 0.0
2018-Apr-19 20:00N 69°39' E 018°58'0 0.0
2018-Apr-19 19:30N 69°39' E 018°58'0 0.0
2018-Apr-19 19:00N 69°39' E 018°58'0 0.0
2018-Apr-19 18:30N 69°39' E 018°58'0 0.0
2018-Apr-19 18:00N 69°39' E 018°58'0 0.0
2018-Apr-19 17:30N 69°39' E 018°58'0 0.0
2018-Apr-19 17:00N 69°39' E 018°58'0 0.2
2018-Apr-19 16:29N 69°39' E 018°58'0 0.0
2018-Apr-19 16:00N 69°39' E 018°58'0 0.0
2018-Apr-19 15:29N 69°39' E 018°58'0 0.0
2018-Apr-19 14:59N 69°39' E 018°58'0 0.0
2018-Apr-19 14:30N 69°39' E 018°58'0 0.0
2018-Apr-19 14:00N 69°39' E 018°58'0 0.0
2018-Apr-19 13:30N 69°39' E 018°58'0 0.0
2018-Apr-19 13:00N 69°39' E 018°58'0 0.0
2018-Apr-19 12:30N 69°39' E 018°58'0 0.0
2018-Apr-19 12:00N 69°39' E 018°58'0 0.0
2018-Apr-19 11:30N 69°39' E 018°58'0 0.0
2018-Apr-19 11:00N 69°39' E 018°58'0 0.0
2018-Apr-19 10:30N 69°39' E 018°58'0 0.0
2018-Apr-19 10:00N 69°39' E 018°58'0 0.0
2018-Apr-19 09:30N 69°39' E 018°58'0 0.0
2018-Apr-19 08:59N 69°39' E 018°58'0 0.0
2018-Apr-19 08:30N 69°39' E 018°58'0 0.0
2018-Apr-19 08:00N 69°39' E 018°58'0 0.0
2018-Apr-19 07:30N 69°39' E 018°58'0 0.0
2018-Apr-19 07:00N 69°39' E 018°58'0 0.0
2018-Apr-19 06:30N 69°39' E 018°58'1 1.5
2018-Apr-19 06:00N 69°40' E 018°59'0 0.3
2018-Apr-19 05:30N 69°40' E 018°60'1 1.7
2018-Apr-19 05:00N 69°41' E 019°01'2 3.1
2018-Apr-19 04:30N 69°42' E 019°03'2 3.2
2018-Apr-19 04:00N 69°44' E 019°03'2 3.6
2018-Apr-19 03:30N 69°46' E 019°04'3 5.1
2018-Apr-19 03:00N 69°48' E 019°02'3 5.8
2018-Apr-19 02:30N 69°51' E 018°57'4 7.7
2018-Apr-19 01:59N 69°53' E 018°48'4 8.0
2018-Apr-19 01:30N 69°55' E 018°39'0 0.7
2018-Apr-19 01:00N 69°56' E 018°38'0 0.6
2018-Apr-19 00:30N 69°56' E 018°37'0 0.3
2018-Apr-19 00:00N 69°56' E 018°37'1 1.2
2018-Apr-18 23:30N 69°55' E 018°37'0 0.4
2018-Apr-18 23:00N 69°55' E 018°36'0 0.4
2018-Apr-18 22:30N 69°55' E 018°36'0 0.5
2018-Apr-18 22:00N 69°56' E 018°36'0 0.6
2018-Apr-18 21:30N 69°56' E 018°36'0 0.2
2018-Apr-18 21:00N 69°56' E 018°36'0 0.5
2018-Apr-18 20:30N 69°56' E 018°36'0 0.4
2018-Apr-18 20:00N 69°56' E 018°36'0 0.5
2018-Apr-18 19:30N 69°56' E 018°36'0 0.3
2018-Apr-18 19:00N 69°56' E 018°36'0 0.3
2018-Apr-18 18:30N 69°57' E 018°36'0 0.4
2018-Apr-18 17:59N 69°57' E 018°36'0 0.4
2018-Apr-18 17:29N 69°57' E 018°37'1 1.3
2018-Apr-18 16:59N 69°57' E 018°38'2 3.8
2018-Apr-18 16:30N 69°59' E 018°35'2 4.6
2018-Apr-18 16:00N 69°57' E 018°33'3 5.5
2018-Apr-18 15:30N 69°56' E 018°25'2 5.0
2018-Apr-18 15:00N 69°57' E 018°18'3 5.7
2018-Apr-18 14:30N 69°58' E 018°11'5 9.4
2018-Apr-18 14:00N 70°02' E 018°05'3 6.8
2018-Apr-18 13:30N 70°05' E 018°03'2 4.6
2018-Apr-18 12:59N 70°08' E 018°02'3 5.7
2018-Apr-18 12:30N 70°10' E 018°02'3 5.5
2018-Apr-18 11:59N 70°13' E 018°01'  
Track history (hours):
 
Tides and Currents Weather Stations Pressure Air Temp Water Temp Dewpoint Dewpoint Depression Visibility Wind Speed Wind Dir Waves Ship Positions

Ole-arvid Nergaard

Last reported at 2018-Apr-26 11:00 UTC. Time now 2018-Apr-26 11:24 UTC.
Position N 71°25' E 026°47'.

Length 55 m; draft 7.2 m.

Type: Fishing. MMSI: 259656000.

Date/timePositionNaut miles runAvg speedWind from/ knotsBaromVisibWave heightAir tempDewpointWater temp
2018-Apr-26 11:00N 71°25' E 026°47'2 3.9
2018-Apr-26 10:29N 71°24' E 026°52'2 3.2
2018-Apr-26 10:00N 71°24' E 026°47'2 4.1
2018-Apr-26 09:29N 71°25' E 026°41'2 4.2
2018-Apr-26 08:59N 71°26' E 026°35'1 2.8
2018-Apr-26 08:30N 71°28' E 026°36'2 3.7
2018-Apr-26 08:00N 71°27' E 026°41'2 3.8
2018-Apr-26 07:28N 71°26' E 026°47'2 4.1
2018-Apr-26 07:00N 71°25' E 026°52'2 3.6
2018-Apr-26 06:30N 71°23' E 026°54'2 4.1
2018-Apr-26 05:59N 71°22' E 026°50'1 1.0
2018-Apr-26 05:30N 71°22' E 026°50'1 2.8
2018-Apr-26 05:00N 71°23' E 026°46'2 3.7
2018-Apr-26 04:30N 71°23' E 026°40'2 3.3
2018-Apr-26 04:00N 71°25' E 026°41'2 4.1
2018-Apr-26 03:30N 71°24' E 026°46'1 2.2
2018-Apr-26 03:00N 71°23' E 026°45'2 3.8
2018-Apr-26 02:30N 71°24' E 026°41'2 3.5
2018-Apr-26 02:00N 71°26' E 026°42'2 3.9
2018-Apr-26 01:30N 71°25' E 026°46'2 4.1
2018-Apr-26 01:00N 71°24' E 026°52'2 4.3
2018-Apr-26 00:30N 71°23' E 026°58'2 4.1
2018-Apr-26 00:00N 71°22' E 027°04'2 4.0
2018-Apr-25 23:29N 71°22' E 027°10'2 3.9
2018-Apr-25 23:00N 71°21' E 027°16'1 1.5
2018-Apr-25 22:30N 71°21' E 027°18'2 3.3
2018-Apr-25 21:59N 71°21' E 027°13'2 4.5
2018-Apr-25 21:30N 71°21' E 027°06'2 4.4
2018-Apr-25 21:00N 71°21' E 026°59'2 4.4
2018-Apr-25 20:30N 71°22' E 026°52'2 4.4
2018-Apr-25 20:00N 71°22' E 026°46'2 4.1
2018-Apr-25 19:30N 71°22' E 026°39'2 4.0
2018-Apr-25 18:59N 71°22' E 026°33'2 4.0
2018-Apr-25 18:30N 71°22' E 026°27'2 4.0
2018-Apr-25 17:59N 71°23' E 026°20'2 4.4
2018-Apr-25 17:30N 71°22' E 026°14'1 2.3
2018-Apr-25 16:59N 71°23' E 026°10'2 3.2
2018-Apr-25 16:30N 71°23' E 026°05'2 3.9
2018-Apr-25 16:00N 71°23' E 025°59'2 4.0
2018-Apr-25 15:30N 71°23' E 025°53'2 4.0
2018-Apr-25 15:00N 71°23' E 025°47'2 4.0
2018-Apr-25 14:30N 71°23' E 025°40'2 4.2
2018-Apr-25 14:00N 71°23' E 025°34'2 4.2
2018-Apr-25 13:30N 71°22' E 025°27'2 4.2
2018-Apr-25 13:00N 71°22' E 025°21'2 4.1
2018-Apr-25 12:30N 71°22' E 025°15'2 4.1
2018-Apr-25 12:00N 71°21' E 025°08'2 4.7
2018-Apr-25 11:30N 71°21' E 025°01'2 3.0
2018-Apr-25 11:00N 71°21' E 024°56'1 2.2
2018-Apr-25 10:30N 71°20' E 024°54'2 4.1
2018-Apr-25 10:00N 71°20' E 024°48'2 4.1
2018-Apr-25 09:30N 71°19' E 024°41'2 4.1
2018-Apr-25 08:59N 71°19' E 024°35'2 4.2
2018-Apr-25 08:30N 71°19' E 024°29'2 4.2
2018-Apr-25 08:00N 71°19' E 024°22'2 4.2
2018-Apr-25 07:30N 71°18' E 024°16'2 4.1
2018-Apr-25 07:00N 71°18' E 024°09'2 4.0
2018-Apr-25 06:30N 71°18' E 024°03'2 3.9
2018-Apr-25 06:00N 71°18' E 023°57'2 4.0
2018-Apr-25 05:30N 71°18' E 023°51'2 4.0
2018-Apr-25 05:00N 71°17' E 023°45'4 8.6
2018-Apr-25 04:30N 71°15' E 023°33'611.3
2018-Apr-25 04:00N 71°13' E 023°16'611.3
2018-Apr-25 03:30N 71°11' E 023°01'5 9.4
2018-Apr-25 03:00N 71°09' E 022°48'2 3.1
2018-Apr-25 02:30N 71°07' E 022°49'1 2.8
2018-Apr-25 02:00N 71°06' E 022°50'2 3.8
2018-Apr-25 01:30N 71°06' E 022°44'2 4.1
2018-Apr-25 01:00N 71°08' E 022°46'2 3.2
2018-Apr-25 00:30N 71°07' E 022°50'2 3.9
2018-Apr-25 00:00N 71°06' E 022°48'2 4.2
2018-Apr-24 23:30N 71°05' E 022°42'2 4.3
2018-Apr-24 23:00N 71°04' E 022°36'2 4.5
2018-Apr-24 22:29N 71°02' E 022°31'2 4.5
2018-Apr-24 21:58N 71°01' E 022°25'2 5.2
2018-Apr-24 21:30N 70°60' E 022°18'612.6
2018-Apr-24 21:00N 70°57' E 022°01'612.8
2018-Apr-24 20:30N 70°54' E 021°43'  
2018-Apr-22 12:03N 69°54' E 016°38'0 4.7
2018-Apr-22 12:00N 69°54' E 016°38'2 3.8
2018-Apr-22 11:29N 69°52' E 016°37'2 3.2
2018-Apr-22 10:44N 69°54' E 016°39'1 4.1
2018-Apr-22 10:30N 69°54' E 016°42'2 4.0
2018-Apr-22 10:00N 69°54' E 016°47'2 4.1
2018-Apr-22 09:30N 69°54' E 016°53'1 2.4
2018-Apr-22 08:59N 69°55' E 016°51'2 4.2
2018-Apr-22 08:30N 69°55' E 016°46'3 4.0
2018-Apr-22 07:45N 69°54' E 016°38'1 3.2
2018-Apr-22 07:30N 69°53' E 016°40'2 4.1
2018-Apr-22 07:00N 69°54' E 016°45'2 4.1
2018-Apr-22 06:30N 69°54' E 016°52'2 4.3
2018-Apr-22 06:00N 69°55' E 016°58'2 4.6
2018-Apr-22 05:30N 69°55' E 017°04'1 2.6
2018-Apr-22 05:00N 69°55' E 017°08'2 4.4
2018-Apr-22 04:29N 69°56' E 017°14'2 3.8
2018-Apr-22 04:00N 69°55' E 017°20'2 3.5
2018-Apr-22 03:29N 69°56' E 017°16'2 4.0
2018-Apr-22 02:59N 69°56' E 017°10'2 4.0
2018-Apr-22 02:30N 69°56' E 017°04'4 8.6
2018-Apr-22 02:00N 69°60' E 017°09'12 0.5
2018-Apr-21 03:59N 69°54' E 016°39'2 4.3
2018-Apr-21 03:30N 69°53' E 016°45'1 2.6
2018-Apr-21 02:59N 69°54' E 016°43'2 3.5
2018-Apr-21 02:30N 69°53' E 016°39'2 4.0
2018-Apr-21 02:00N 69°54' E 016°44'2 4.2
2018-Apr-21 01:30N 69°54' E 016°50'2 4.1
2018-Apr-21 01:00N 69°55' E 016°56'2 4.8
2018-Apr-21 00:30N 69°56' E 017°02'2 3.4
2018-Apr-20 23:58N 69°56' E 017°07'2 4.6
2018-Apr-20 23:30N 69°56' E 017°13'2 4.8
2018-Apr-20 23:00N 69°56' E 017°20'1 1.4
2018-Apr-20 22:30N 69°55' E 017°20'5 9.8
2018-Apr-20 22:00N 69°50' E 017°19'611.7
2018-Apr-20 21:30N 69°44' E 017°22'611.7
2018-Apr-20 21:00N 69°39' E 017°25'612.4
2018-Apr-20 20:30N 69°33' E 017°28'3 6.1
2018-Apr-20 20:00N 69°30' E 017°29'0 0.0
2018-Apr-20 19:30N 69°30' E 017°29'0 0.0
2018-Apr-20 19:00N 69°30' E 017°29'0 0.0
2018-Apr-20 18:30N 69°30' E 017°29'0 0.0
2018-Apr-20 18:00N 69°30' E 017°29'0 0.0
2018-Apr-20 17:30N 69°30' E 017°29'0 0.0
2018-Apr-20 17:00N 69°30' E 017°29'0 0.0
2018-Apr-20 16:30N 69°30' E 017°29'0 0.0
2018-Apr-20 16:00N 69°30' E 017°29'0 0.0
2018-Apr-20 15:30N 69°30' E 017°29'0 0.0
2018-Apr-20 15:00N 69°30' E 017°29'0 0.0
2018-Apr-20 14:30N 69°30' E 017°29'0 0.0
2018-Apr-20 13:59N 69°30' E 017°29'0 0.0
2018-Apr-20 13:30N 69°30' E 017°29'0 0.0
2018-Apr-20 13:00N 69°30' E 017°29'0 0.0
2018-Apr-20 12:30N 69°30' E 017°29'0 0.0
2018-Apr-20 12:00N 69°30' E 017°29'0 0.0
2018-Apr-20 11:30N 69°30' E 017°29'0 0.0
2018-Apr-20 11:00N 69°30' E 017°29'0 0.0
2018-Apr-20 10:30N 69°30' E 017°29'0 0.0
2018-Apr-20 09:59N 69°30' E 017°29'0 0.0
2018-Apr-20 09:30N 69°30' E 017°29'0 0.0
2018-Apr-20 09:00N 69°30' E 017°29'0 0.0
2018-Apr-20 08:29N 69°30' E 017°29'0 0.0
2018-Apr-20 08:00N 69°30' E 017°29'0 0.0
2018-Apr-20 07:30N 69°30' E 017°29'0 0.0
2018-Apr-20 07:00N 69°30' E 017°29'0 0.0
2018-Apr-20 06:29N 69°30' E 017°29'0 0.0
2018-Apr-20 06:00N 69°30' E 017°29'0 0.0
2018-Apr-20 05:30N 69°30' E 017°29'0 0.0
2018-Apr-20 04:59N 69°30' E 017°29'0 0.0
2018-Apr-20 04:29N 69°30' E 017°29'0 0.0
2018-Apr-20 04:00N 69°30' E 017°29'0 0.0
2018-Apr-20 03:30N 69°30' E 017°29'0 0.1
2018-Apr-20 02:59N 69°30' E 017°29'4 7.9
2018-Apr-20 02:30N 69°34' E 017°27'510.2
2018-Apr-20 02:00N 69°39' E 017°30'5 9.7
2018-Apr-20 01:30N 69°39' E 017°44'611.0
2018-Apr-20 01:00N 69°35' E 017°55'611.7
2018-Apr-20 00:30N 69°31' E 018°08'510.9
2018-Apr-20 00:00N 69°31' E 018°23'511.0
2018-Apr-19 23:30N 69°33' E 018°38'4 8.4
2018-Apr-19 23:00N 69°35' E 018°49'510.1
2018-Apr-19 22:30N 69°39' E 018°58'1 1.4
2018-Apr-19 22:00N 69°39' E 018°58'0 0.0
2018-Apr-19 21:30N 69°39' E 018°58'0 0.0
2018-Apr-19 21:00N 69°39' E 018°58'0 0.0
2018-Apr-19 20:29N 69°39' E 018°58'0 0.0
2018-Apr-19 20:00N 69°39' E 018°58'0 0.0
2018-Apr-19 19:30N 69°39' E 018°58'0 0.0
2018-Apr-19 19:00N 69°39' E 018°58'0 0.0
2018-Apr-19 18:30N 69°39' E 018°58'0 0.0
2018-Apr-19 18:00N 69°39' E 018°58'0 0.0
2018-Apr-19 17:30N 69°39' E 018°58'0 0.0
2018-Apr-19 17:00N 69°39' E 018°58'0 0.2
2018-Apr-19 16:29N 69°39' E 018°58'0 0.0
2018-Apr-19 16:00N 69°39' E 018°58'0 0.0
2018-Apr-19 15:29N 69°39' E 018°58'0 0.0
2018-Apr-19 14:59N 69°39' E 018°58'0 0.0
2018-Apr-19 14:30N 69°39' E 018°58'0 0.0
2018-Apr-19 14:00N 69°39' E 018°58'0 0.0
2018-Apr-19 13:30N 69°39' E 018°58'0 0.0
2018-Apr-19 13:00N 69°39' E 018°58'0 0.0
2018-Apr-19 12:30N 69°39' E 018°58'0 0.0
2018-Apr-19 12:00N 69°39' E 018°58'0 0.0
2018-Apr-19 11:30N 69°39' E 018°58'0 0.0
2018-Apr-19 11:00N 69°39' E 018°58'0 0.0
2018-Apr-19 10:30N 69°39' E 018°58'0 0.0
2018-Apr-19 10:00N 69°39' E 018°58'0 0.0
2018-Apr-19 09:30N 69°39' E 018°58'0 0.0
2018-Apr-19 08:59N 69°39' E 018°58'0 0.0
2018-Apr-19 08:30N 69°39' E 018°58'0 0.0
2018-Apr-19 08:00N 69°39' E 018°58'0 0.0
2018-Apr-19 07:30N 69°39' E 018°58'0 0.0
2018-Apr-19 07:00N 69°39' E 018°58'0 0.0
2018-Apr-19 06:30N 69°39' E 018°58'1 1.5
2018-Apr-19 06:00N 69°40' E 018°59'0 0.3
2018-Apr-19 05:30N 69°40' E 018°60'1 1.7
2018-Apr-19 05:00N 69°41' E 019°01'2 3.1
2018-Apr-19 04:30N 69°42' E 019°03'2 3.2
2018-Apr-19 04:00N 69°44' E 019°03'2 3.6
2018-Apr-19 03:30N 69°46' E 019°04'3 5.1
2018-Apr-19 03:00N 69°48' E 019°02'3 5.8
2018-Apr-19 02:30N 69°51' E 018°57'4 7.7
2018-Apr-19 01:59N 69°53' E 018°48'4 8.0
2018-Apr-19 01:30N 69°55' E 018°39'0 0.7
2018-Apr-19 01:00N 69°56' E 018°38'0 0.6
2018-Apr-19 00:30N 69°56' E 018°37'0 0.3
2018-Apr-19 00:00N 69°56' E 018°37'1 1.2
2018-Apr-18 23:30N 69°55' E 018°37'0 0.4
2018-Apr-18 23:00N 69°55' E 018°36'0 0.4
2018-Apr-18 22:30N 69°55' E 018°36'0 0.5
2018-Apr-18 22:00N 69°56' E 018°36'0 0.6
2018-Apr-18 21:30N 69°56' E 018°36'0 0.2
2018-Apr-18 21:00N 69°56' E 018°36'0 0.5
2018-Apr-18 20:30N 69°56' E 018°36'0 0.4
2018-Apr-18 20:00N 69°56' E 018°36'0 0.5
2018-Apr-18 19:30N 69°56' E 018°36'0 0.3
2018-Apr-18 19:00N 69°56' E 018°36'0 0.3
2018-Apr-18 18:30N 69°57' E 018°36'0 0.4
2018-Apr-18 17:59N 69°57' E 018°36'0 0.4
2018-Apr-18 17:29N 69°57' E 018°37'1 1.3
2018-Apr-18 16:59N 69°57' E 018°38'2 3.8
2018-Apr-18 16:30N 69°59' E 018°35'2 4.6
2018-Apr-18 16:00N 69°57' E 018°33'3 5.5
2018-Apr-18 15:30N 69°56' E 018°25'2 5.0
2018-Apr-18 15:00N 69°57' E 018°18'3 5.7
2018-Apr-18 14:30N 69°58' E 018°11'5 9.4
2018-Apr-18 14:00N 70°02' E 018°05'3 6.8
2018-Apr-18 13:30N 70°05' E 018°03'2 4.6
2018-Apr-18 12:59N 70°08' E 018°02'3 5.7
2018-Apr-18 12:30N 70°10' E 018°02'3 5.5
2018-Apr-18 11:59N 70°13' E 018°01'  

Dump ship's entire track history